Station Historical Data
Daily Summary for July 5, 2017 Units:  Both    English   Metric
« Previous Day
Next Day »
Daily Weekly Monthly Yearly Custom
  High: Low: Average:
Temperature: 88.7 °F /  31.5 °C 57.3 °F /  14.1 °C 73.3 °F /  22.9 °C
Dew Point: 66.7 °F /  19.3 °C 50.5 °F /  10.3 °C 57.7 °F /  14.3 °C
Humidity: 78% 40% 60%
Wind Speed: 7.0mph /  11.3km/h - 1.5mph /  2.4km/h
Wind Gust: 14.0mph /  22.5km/h - -
Wind- - East
Pressure: 30.18 in /  1021.9 hPa 30.03 in /  1016.8 hPa -
Precipitation: 0.00 in /  0 mm    
Historical Graphs
 
 
Tabular Data for July 5, 2017
Time Temperature Dew Point Pressure Wind Wind Speed Wind Gust Humidity Rainfall Rate (Hourly)
00:04 64.6 °F /  18.1 °C 51.3 °F /  10.7 °C 30.15in /  1020.9hPa Calm     62% 0.00in /  0mm
00:09 64.3 °F /  17.9 °C 51.4 °F /  10.8 °C 30.14in /  1020.5hPa Calm   2.0mph /  3.2km/h 63% 0.00in /  0mm
00:14 64.2 °F /  17.9 °C 51.8 °F /  11 °C 30.15in /  1020.9hPa Calm   2.0mph /  3.2km/h 64% 0.00in /  0mm
00:19 64.0 °F /  17.8 °C 52.0 °F /  11.1 °C 30.14in /  1020.5hPa Calm     65% 0.00in /  0mm
00:24 63.7 °F /  17.6 °C 52.1 °F /  11.2 °C 30.14in /  1020.5hPa Calm     66% 0.00in /  0mm
00:29 63.3 °F /  17.4 °C 52.2 °F /  11.2 °C 30.14in /  1020.5hPa Calm     67% 0.00in /  0mm
00:34 62.8 °F /  17.1 °C 52.1 °F /  11.2 °C 30.14in /  1020.5hPa Calm     68% 0.00in /  0mm
00:39 62.8 °F /  17.1 °C 52.1 °F /  11.2 °C 30.14in /  1020.5hPa Calm     68% 0.00in /  0mm
00:44 62.6 °F /  17 °C 51.9 °F /  11.1 °C 30.14in /  1020.5hPa Calm     68% 0.00in /  0mm
00:49 62.3 °F /  16.8 °C 52.0 °F /  11.1 °C 30.14in /  1020.5hPa Calm     69% 0.00in /  0mm
00:54 62.1 °F /  16.7 °C 51.8 °F /  11 °C 30.14in /  1020.5hPa Calm     69% 0.00in /  0mm
00:59 62.0 °F /  16.7 °C 52.1 °F /  11.2 °C 30.14in /  1020.5hPa Calm     70% 0.00in /  0mm
01:04 61.9 °F /  16.6 °C 52.0 °F /  11.1 °C 30.14in /  1020.5hPa Calm     70% 0.00in /  0mm
01:09 61.7 °F /  16.5 °C 51.8 °F /  11 °C 30.14in /  1020.5hPa Calm     70% 0.00in /  0mm
01:14 61.4 °F /  16.3 °C 51.9 °F /  11.1 °C 30.14in /  1020.5hPa Calm     71% 0.00in /  0mm
01:19 60.7 °F /  15.9 °C 51.6 °F /  10.9 °C 30.14in /  1020.5hPa Calm     72% 0.00in /  0mm
01:24 60.3 °F /  15.7 °C 51.6 °F /  10.9 °C 30.14in /  1020.5hPa Calm     73% 0.00in /  0mm
01:29 60.1 °F /  15.6 °C 51.8 °F /  11 °C 30.14in /  1020.5hPa Calm     74% 0.00in /  0mm
01:34 60.3 °F /  15.7 °C 51.6 °F /  10.9 °C 30.14in /  1020.5hPa Calm     73% 0.00in /  0mm
01:39 60.0 °F /  15.6 °C 51.7 °F /  10.9 °C 30.14in /  1020.5hPa Calm     74% 0.00in /  0mm
01:44 59.6 °F /  15.3 °C 51.7 °F /  10.9 °C 30.14in /  1020.5hPa Calm     75% 0.00in /  0mm
01:49 59.5 °F /  15.3 °C 51.6 °F /  10.9 °C 30.14in /  1020.5hPa Calm     75% 0.00in /  0mm
01:54 59.5 °F /  15.3 °C 51.6 °F /  10.9 °C 30.14in /  1020.5hPa Calm     75% 0.00in /  0mm
01:59 59.5 °F /  15.3 °C 51.6 °F /  10.9 °C 30.14in /  1020.5hPa Calm     75% 0.00in /  0mm
02:04 59.4 °F /  15.2 °C 51.5 °F /  10.8 °C 30.14in /  1020.5hPa Calm     75% 0.00in /  0mm
02:09 59.3 °F /  15.2 °C 51.4 °F /  10.8 °C 30.13in /  1020.2hPa Calm     75% 0.00in /  0mm
02:14 59.2 °F /  15.1 °C 51.6 °F /  10.9 °C 30.13in /  1020.2hPa Calm     76% 0.00in /  0mm
02:19 59.1 °F /  15.1 °C 51.5 °F /  10.8 °C 30.13in /  1020.2hPa Calm     76% 0.00in /  0mm
02:24 59.1 °F /  15.1 °C 51.5 °F /  10.8 °C 30.13in /  1020.2hPa Calm     76% 0.00in /  0mm
02:29 59.0 °F /  15 °C 51.4 °F /  10.8 °C 30.13in /  1020.2hPa Calm     76% 0.00in /  0mm
02:34 59.0 °F /  15 °C 51.4 °F /  10.8 °C 30.13in /  1020.2hPa Calm     76% 0.00in /  0mm
02:39 59.0 °F /  15 °C 51.4 °F /  10.8 °C 30.13in /  1020.2hPa Calm     76% 0.00in /  0mm
02:44 58.9 °F /  14.9 °C 51.3 °F /  10.7 °C 30.13in /  1020.2hPa Calm   2.0mph /  3.2km/h 76% 0.00in /  0mm
02:49 59.0 °F /  15 °C 51.4 °F /  10.8 °C 30.13in /  1020.2hPa Calm   1.0mph /  1.6km/h 76% 0.00in /  0mm
02:54 58.9 °F /  14.9 °C 51.3 °F /  10.7 °C 30.13in /  1020.2hPa Calm   1.0mph /  1.6km/h 76% 0.00in /  0mm
02:59 58.8 °F /  14.9 °C 51.2 °F /  10.7 °C 30.12in /  1019.9hPa Calm     76% 0.00in /  0mm
03:04 58.7 °F /  14.8 °C 51.2 °F /  10.7 °C 30.12in /  1019.9hPa Calm     76% 0.00in /  0mm
03:09 58.5 °F /  14.7 °C 51.0 °F /  10.6 °C 30.13in /  1020.2hPa Calm     76% 0.00in /  0mm
03:14 58.3 °F /  14.6 °C 51.1 °F /  10.6 °C 30.12in /  1019.9hPa Calm     77% 0.00in /  0mm
03:19 58.0 °F /  14.4 °C 50.8 °F /  10.4 °C 30.12in /  1019.9hPa Calm     77% 0.00in /  0mm
03:24 57.8 °F /  14.3 °C 51.0 °F /  10.6 °C 30.13in /  1020.2hPa Calm     78% 0.00in /  0mm
03:29 57.6 °F /  14.2 °C 50.8 °F /  10.4 °C 30.13in /  1020.2hPa Calm     78% 0.00in /  0mm
03:34 57.6 °F /  14.2 °C 50.8 °F /  10.4 °C 30.13in /  1020.2hPa Calm     78% 0.00in /  0mm
03:39 57.6 °F /  14.2 °C 50.8 °F /  10.4 °C 30.13in /  1020.2hPa Calm     78% 0.00in /  0mm
03:44 57.5 °F /  14.2 °C 50.7 °F /  10.4 °C 30.13in /  1020.2hPa Calm     78% 0.00in /  0mm
03:49 57.4 °F /  14.1 °C 50.6 °F /  10.3 °C 30.13in /  1020.2hPa Calm     78% 0.00in /  0mm
03:54 57.5 °F /  14.2 °C 50.7 °F /  10.4 °C 30.13in /  1020.2hPa Calm     78% 0.00in /  0mm
03:59 57.6 °F /  14.2 °C 50.8 °F /  10.4 °C 30.14in /  1020.5hPa Calm     78% 0.00in /  0mm
04:04 57.5 °F /  14.2 °C 50.7 °F /  10.4 °C 30.14in /  1020.5hPa Calm     78% 0.00in /  0mm
04:09 57.3 °F /  14.1 °C 50.5 °F /  10.3 °C 30.14in /  1020.5hPa Calm     78% 0.00in /  0mm
04:14 57.3 °F /  14.1 °C 50.5 °F /  10.3 °C 30.14in /  1020.5hPa Calm     78% 0.00in /  0mm
04:19 57.3 °F /  14.1 °C 50.5 °F /  10.3 °C 30.14in /  1020.5hPa Calm     78% 0.00in /  0mm
04:24 57.4 °F /  14.1 °C 50.6 °F /  10.3 °C 30.14in /  1020.5hPa NE 2.0mph /  3.2km/h 3.0mph /  4.8km/h 78% 0.00in /  0mm
04:29 57.6 °F /  14.2 °C 50.8 °F /  10.4 °C 30.14in /  1020.5hPa NE 1.0mph /  1.6km/h 3.0mph /  4.8km/h 78% 0.00in /  0mm
04:34 57.8 °F /  14.3 °C 50.6 °F /  10.3 °C 30.14in /  1020.5hPa Calm     77% 0.00in /  0mm
04:39 57.8 °F /  14.3 °C 50.6 °F /  10.3 °C 30.14in /  1020.5hPa ENE 1.0mph /  1.6km/h 2.0mph /  3.2km/h 77% 0.00in /  0mm
04:44 57.8 °F /  14.3 °C 50.6 °F /  10.3 °C 30.13in /  1020.2hPa Calm   2.0mph /  3.2km/h 77% 0.00in /  0mm
04:49 57.8 °F /  14.3 °C 50.6 °F /  10.3 °C 30.14in /  1020.5hPa Calm   2.0mph /  3.2km/h 77% 0.00in /  0mm
04:54 57.8 °F /  14.3 °C 50.6 °F /  10.3 °C 30.14in /  1020.5hPa Calm   1.0mph /  1.6km/h 77% 0.00in /  0mm
04:59 57.9 °F /  14.4 °C 50.7 °F /  10.4 °C 30.14in /  1020.5hPa Calm   2.0mph /  3.2km/h 77% 0.00in /  0mm
05:04 58.0 °F /  14.4 °C 50.8 °F /  10.4 °C 30.14in /  1020.5hPa Calm   2.0mph /  3.2km/h 77% 0.00in /  0mm
05:09 58.0 °F /  14.4 °C 50.8 °F /  10.4 °C 30.15in /  1020.9hPa Calm     77% 0.00in /  0mm
05:14 58.1 °F /  14.5 °C 50.9 °F /  10.5 °C 30.15in /  1020.9hPa Calm     77% 0.00in /  0mm
05:19 58.1 °F /  14.5 °C 50.9 °F /  10.5 °C 30.15in /  1020.9hPa Calm     77% 0.00in /  0mm
05:24 58.4 °F /  14.7 °C 51.2 °F /  10.7 °C 30.15in /  1020.9hPa Calm   4.0mph /  6.4km/h 77% 0.00in /  0mm
05:29 58.9 °F /  14.9 °C 51.3 °F /  10.7 °C 30.15in /  1020.9hPa Calm     76% 0.00in /  0mm
05:34 59.2 °F /  15.1 °C 51.3 °F /  10.7 °C 30.15in /  1020.9hPa ENE 1.0mph /  1.6km/h 2.0mph /  3.2km/h 75% 0.00in /  0mm
05:39 59.9 °F /  15.5 °C 51.6 °F /  10.9 °C 30.15in /  1020.9hPa East 2.0mph /  3.2km/h 3.0mph /  4.8km/h 74% 0.00in /  0mm
05:44 60.4 °F /  15.8 °C 51.7 °F /  10.9 °C 30.15in /  1020.9hPa East 1.0mph /  1.6km/h 3.0mph /  4.8km/h 73% 0.00in /  0mm
05:49 60.9 °F /  16.1 °C 51.8 °F /  11 °C 30.15in /  1020.9hPa East 1.0mph /  1.6km/h 3.0mph /  4.8km/h 72% 0.00in /  0mm
05:54 61.3 °F /  16.3 °C 51.8 °F /  11 °C 30.15in /  1020.9hPa East 1.0mph /  1.6km/h 2.0mph /  3.2km/h 71% 0.00in /  0mm
05:59 61.4 °F /  16.3 °C 51.9 °F /  11.1 °C 30.16in /  1021.2hPa Calm   2.0mph /  3.2km/h 71% 0.00in /  0mm
06:04 61.5 °F /  16.4 °C 51.6 °F /  10.9 °C 30.16in /  1021.2hPa Calm   3.0mph /  4.8km/h 70% 0.00in /  0mm
06:09 61.2 °F /  16.2 °C 52.1 °F /  11.2 °C 30.16in /  1021.2hPa Calm   2.0mph /  3.2km/h 72% 0.00in /  0mm
06:14 60.8 °F /  16 °C 51.7 °F /  10.9 °C 30.16in /  1021.2hPa Calm     72% 0.00in /  0mm
06:19 60.7 °F /  15.9 °C 52.0 °F /  11.1 °C 30.16in /  1021.2hPa Calm     73% 0.00in /  0mm
06:24 61.0 °F /  16.1 °C 51.9 °F /  11.1 °C 30.16in /  1021.2hPa Calm   2.0mph /  3.2km/h 72% 0.00in /  0mm
06:29 61.3 °F /  16.3 °C 51.8 °F /  11 °C 30.16in /  1021.2hPa Calm   2.0mph /  3.2km/h 71% 0.00in /  0mm
06:34 61.6 °F /  16.4 °C 51.7 °F /  10.9 °C 30.16in /  1021.2hPa Calm   2.0mph /  3.2km/h 70% 0.00in /  0mm
06:39 61.9 °F /  16.6 °C 51.6 °F /  10.9 °C 30.16in /  1021.2hPa Calm   3.0mph /  4.8km/h 69% 0.00in /  0mm
06:44 62.2 °F /  16.8 °C 51.5 °F /  10.8 °C 30.16in /  1021.2hPa Calm   3.0mph /  4.8km/h 68% 0.00in /  0mm
06:49 62.4 °F /  16.9 °C 51.7 °F /  10.9 °C 30.16in /  1021.2hPa Calm     68% 0.00in /  0mm
06:54 62.8 °F /  17.1 °C 51.7 °F /  10.9 °C 30.17in /  1021.6hPa Calm   3.0mph /  4.8km/h 67% 0.00in /  0mm
06:59 63.4 °F /  17.4 °C 51.8 °F /  11 °C 30.17in /  1021.6hPa East 1.0mph /  1.6km/h 3.0mph /  4.8km/h 66% 0.00in /  0mm
07:04 63.9 °F /  17.7 °C 52.7 °F /  11.5 °C 30.17in /  1021.6hPa Calm   2.0mph /  3.2km/h 67% 0.00in /  0mm
07:09 64.0 °F /  17.8 °C 52.4 °F /  11.3 °C 30.17in /  1021.6hPa Calm     66% 0.00in /  0mm
07:14 64.1 °F /  17.8 °C 52.5 °F /  11.4 °C 30.17in /  1021.6hPa Calm   3.0mph /  4.8km/h 66% 0.00in /  0mm
07:19 64.1 °F /  17.8 °C 52.5 °F /  11.4 °C 30.17in /  1021.6hPa East 1.0mph /  1.6km/h 3.0mph /  4.8km/h 66% 0.00in /  0mm
07:24 64.5 °F /  18.1 °C 52.9 °F /  11.6 °C 30.17in /  1021.6hPa East 1.0mph /  1.6km/h 3.0mph /  4.8km/h 66% 0.00in /  0mm
07:29 65.0 °F /  18.3 °C 52.1 °F /  11.2 °C 30.18in /  1021.9hPa ENE 2.0mph /  3.2km/h 4.0mph /  6.4km/h 63% 0.00in /  0mm
07:34 65.6 °F /  18.7 °C 52.7 °F /  11.5 °C 30.17in /  1021.6hPa ENE 3.0mph /  4.8km/h 4.0mph /  6.4km/h 63% 0.00in /  0mm
07:39 65.8 °F /  18.8 °C 52.4 °F /  11.3 °C 30.17in /  1021.6hPa ENE 2.0mph /  3.2km/h 5.0mph /  8km/h 62% 0.00in /  0mm
07:44 66.2 °F /  19 °C 52.8 °F /  11.6 °C 30.18in /  1021.9hPa ENE 1.0mph /  1.6km/h 4.0mph /  6.4km/h 62% 0.00in /  0mm
07:49 66.5 °F /  19.2 °C 52.6 °F /  11.4 °C 30.18in /  1021.9hPa ENE 2.0mph /  3.2km/h 4.0mph /  6.4km/h 61% 0.00in /  0mm
07:54 66.9 °F /  19.4 °C 53.0 °F /  11.7 °C 30.18in /  1021.9hPa ENE 1.0mph /  1.6km/h 5.0mph /  8km/h 61% 0.00in /  0mm
07:59 67.3 °F /  19.6 °C 52.5 °F /  11.4 °C 30.18in /  1021.9hPa Calm   6.0mph /  9.7km/h 59% 0.00in /  0mm
08:04 67.9 °F /  19.9 °C 53.0 °F /  11.7 °C 30.18in /  1021.9hPa ENE 1.0mph /  1.6km/h 7.0mph /  11.3km/h 59% 0.00in /  0mm
08:09 68.2 °F /  20.1 °C 53.3 °F /  11.8 °C 30.18in /  1021.9hPa ENE 4.0mph /  6.4km/h 6.0mph /  9.7km/h 59% 0.00in /  0mm
08:14 68.5 °F /  20.3 °C 53.6 °F /  12 °C 30.18in /  1021.9hPa ENE 2.0mph /  3.2km/h 5.0mph /  8km/h 59% 0.00in /  0mm
08:19 68.9 °F /  20.5 °C 53.5 °F /  11.9 °C 30.18in /  1021.9hPa East 3.0mph /  4.8km/h 6.0mph /  9.7km/h 58% 0.00in /  0mm
08:24 69.6 °F /  20.9 °C 54.2 °F /  12.3 °C 30.17in /  1021.6hPa ENE 2.0mph /  3.2km/h 6.0mph /  9.7km/h 58% 0.00in /  0mm
08:29 70.2 °F /  21.2 °C 53.8 °F /  12.1 °C 30.17in /  1021.6hPa NE 6.0mph /  9.7km/h 7.0mph /  11.3km/h 56% 0.00in /  0mm
08:34 70.3 °F /  21.3 °C 54.3 °F /  12.4 °C 30.17in /  1021.6hPa ENE 1.0mph /  1.6km/h 6.0mph /  9.7km/h 57% 0.00in /  0mm
08:39 70.5 °F /  21.4 °C 54.0 °F /  12.2 °C 30.18in /  1021.9hPa ENE 5.0mph /  8km/h 6.0mph /  9.7km/h 56% 0.00in /  0mm
08:44 71.6 °F /  22 °C 56.0 °F /  13.3 °C 30.18in /  1021.9hPa NE 4.0mph /  6.4km/h 5.0mph /  8km/h 58% 0.00in /  0mm
08:49 72.1 °F /  22.3 °C 55.5 °F /  13.1 °C 30.17in /  1021.6hPa NE 2.0mph /  3.2km/h 6.0mph /  9.7km/h 56% 0.00in /  0mm
08:54 72.3 °F /  22.4 °C 54.7 °F /  12.6 °C 30.17in /  1021.6hPa ENE 2.0mph /  3.2km/h 6.0mph /  9.7km/h 54% 0.00in /  0mm
08:59 72.4 °F /  22.4 °C 55.8 °F /  13.2 °C 30.17in /  1021.6hPa East 3.0mph /  4.8km/h 7.0mph /  11.3km/h 56% 0.00in /  0mm
09:04 72.8 °F /  22.7 °C 55.2 °F /  12.9 °C 30.17in /  1021.6hPa SE 4.0mph /  6.4km/h 9.0mph /  14.5km/h 54% 0.00in /  0mm
09:09 72.9 °F /  22.7 °C 56.3 °F /  13.5 °C 30.17in /  1021.6hPa SE 2.0mph /  3.2km/h 7.0mph /  11.3km/h 56% 0.00in /  0mm
09:14 73.6 °F /  23.1 °C 56.4 °F /  13.6 °C 30.17in /  1021.6hPa SSE 4.0mph /  6.4km/h 6.0mph /  9.7km/h 55% 0.00in /  0mm
09:19 73.7 °F /  23.2 °C 56.5 °F /  13.6 °C 30.17in /  1021.6hPa ESE 3.0mph /  4.8km/h 6.0mph /  9.7km/h 55% 0.00in /  0mm
09:24 74.3 °F /  23.5 °C 56.6 °F /  13.7 °C 30.17in /  1021.6hPa ESE 1.0mph /  1.6km/h 8.0mph /  12.9km/h 54% 0.00in /  0mm
09:29 75.0 °F /  23.9 °C 56.7 °F /  13.7 °C 30.17in /  1021.6hPa SSE 2.0mph /  3.2km/h 7.0mph /  11.3km/h 53% 0.00in /  0mm
09:34 75.8 °F /  24.3 °C 57.4 °F /  14.1 °C 30.17in /  1021.6hPa East 1.0mph /  1.6km/h 5.0mph /  8km/h 53% 0.00in /  0mm
09:39 76.0 °F /  24.4 °C 57.6 °F /  14.2 °C 30.16in /  1021.2hPa SE 5.0mph /  8km/h 7.0mph /  11.3km/h 53% 0.00in /  0mm
09:44 75.9 °F /  24.4 °C 58.1 °F /  14.5 °C 30.16in /  1021.2hPa ESE 2.0mph /  3.2km/h 7.0mph /  11.3km/h 54% 0.00in /  0mm
09:49 76.5 °F /  24.7 °C 58.6 °F /  14.8 °C 30.16in /  1021.2hPa ESE 3.0mph /  4.8km/h 8.0mph /  12.9km/h 54% 0.00in /  0mm
09:54 76.8 °F /  24.9 °C 58.4 °F /  14.7 °C 30.16in /  1021.2hPa ESE 3.0mph /  4.8km/h 8.0mph /  12.9km/h 53% 0.00in /  0mm
09:59 77.2 °F /  25.1 °C 59.3 °F /  15.2 °C 30.16in /  1021.2hPa ESE 3.0mph /  4.8km/h 8.0mph /  12.9km/h 54% 0.00in /  0mm
10:04 77.4 °F /  25.2 °C 58.4 °F /  14.7 °C 30.16in /  1021.2hPa SE 3.0mph /  4.8km/h 7.0mph /  11.3km/h 52% 0.00in /  0mm
10:09 78.3 °F /  25.7 °C 58.1 °F /  14.5 °C 30.16in /  1021.2hPa SE 1.0mph /  1.6km/h 5.0mph /  8km/h 50% 0.00in /  0mm
10:14 78.3 °F /  25.7 °C 58.1 °F /  14.5 °C 30.16in /  1021.2hPa East 3.0mph /  4.8km/h 7.0mph /  11.3km/h 50% 0.00in /  0mm
10:19 78.8 °F /  26 °C 59.1 °F /  15.1 °C 30.15in /  1020.9hPa ENE 3.0mph /  4.8km/h 8.0mph /  12.9km/h 51% 0.00in /  0mm
10:24 79.4 °F /  26.3 °C 59.7 °F /  15.4 °C 30.15in /  1020.9hPa SSE 2.0mph /  3.2km/h 6.0mph /  9.7km/h 51% 0.00in /  0mm
10:29 79.7 °F /  26.5 °C 58.8 °F /  14.9 °C 30.15in /  1020.9hPa NE 4.0mph /  6.4km/h 8.0mph /  12.9km/h 49% 0.00in /  0mm
10:34 80.0 °F /  26.7 °C 59.1 °F /  15.1 °C 30.15in /  1020.9hPa East 3.0mph /  4.8km/h 8.0mph /  12.9km/h 49% 0.00in /  0mm
10:39 80.0 °F /  26.7 °C 59.1 °F /  15.1 °C 30.15in /  1020.9hPa NE 5.0mph /  8km/h 7.0mph /  11.3km/h 49% 0.00in /  0mm
10:44 80.3 °F /  26.8 °C 60.0 °F /  15.6 °C 30.15in /  1020.9hPa East 4.0mph /  6.4km/h 10.0mph /  16.1km/h 50% 0.00in /  0mm
10:49 80.6 °F /  27 °C 57.9 °F /  14.4 °C 30.15in /  1020.9hPa ENE 5.0mph /  8km/h 10.0mph /  16.1km/h 46% 0.00in /  0mm
10:54 80.5 °F /  26.9 °C 58.4 °F /  14.7 °C 30.14in /  1020.5hPa ENE 5.0mph /  8km/h 11.0mph /  17.7km/h 47% 0.00in /  0mm
10:59 80.7 °F /  27.1 °C 57.4 °F /  14.1 °C 30.14in /  1020.5hPa ENE 5.0mph /  8km/h 11.0mph /  17.7km/h 45% 0.00in /  0mm
11:04 81.4 °F /  27.4 °C 60.4 °F /  15.8 °C 30.14in /  1020.5hPa ENE 2.0mph /  3.2km/h 6.0mph /  9.7km/h 49% 0.00in /  0mm
11:09 81.4 °F /  27.4 °C 59.8 °F /  15.4 °C 30.14in /  1020.5hPa SSE 2.0mph /  3.2km/h 9.0mph /  14.5km/h 48% 0.00in /  0mm
11:14 81.6 °F /  27.6 °C 59.4 °F /  15.2 °C 30.14in /  1020.5hPa ESE 1.0mph /  1.6km/h 8.0mph /  12.9km/h 47% 0.00in /  0mm
11:19 81.4 °F /  27.4 °C 58.6 °F /  14.8 °C 30.14in /  1020.5hPa SE 3.0mph /  4.8km/h 8.0mph /  12.9km/h 46% 0.00in /  0mm
11:24 81.9 °F /  27.7 °C 59.7 °F /  15.4 °C 30.14in /  1020.5hPa SSE 2.0mph /  3.2km/h 7.0mph /  11.3km/h 47% 0.00in /  0mm
11:29 82.2 °F /  27.9 °C 58.7 °F /  14.8 °C 30.14in /  1020.5hPa SE 2.0mph /  3.2km/h 10.0mph /  16.1km/h 45% 0.00in /  0mm
11:34 82.1 °F /  27.8 °C 60.5 °F /  15.8 °C 30.14in /  1020.5hPa NNE 4.0mph /  6.4km/h 10.0mph /  16.1km/h 48% 0.00in /  0mm
11:39 82.0 °F /  27.8 °C 57.9 °F /  14.4 °C 30.14in /  1020.5hPa SE 2.0mph /  3.2km/h 9.0mph /  14.5km/h 44% 0.00in /  0mm
11:44 82.9 °F /  28.3 °C 58.1 °F /  14.5 °C 30.14in /  1020.5hPa ESE 3.0mph /  4.8km/h 9.0mph /  14.5km/h 43% 0.00in /  0mm
11:49 82.0 °F /  27.8 °C 58.6 °F /  14.8 °C 30.14in /  1020.5hPa SE 3.0mph /  4.8km/h 9.0mph /  14.5km/h 45% 0.00in /  0mm
11:54 81.4 °F /  27.4 °C 59.2 °F /  15.1 °C 30.14in /  1020.5hPa East 7.0mph /  11.3km/h 11.0mph /  17.7km/h 47% 0.00in /  0mm
11:59 82.9 °F /  28.3 °C 60.6 °F /  15.9 °C 30.13in /  1020.2hPa SSE 4.0mph /  6.4km/h 6.0mph /  9.7km/h 47% 0.00in /  0mm
12:04 82.5 °F /  28.1 °C 58.4 °F /  14.7 °C 30.13in /  1020.2hPa East 3.0mph /  4.8km/h 8.0mph /  12.9km/h 44% 0.00in /  0mm
12:09 82.7 °F /  28.2 °C 61.0 °F /  16.1 °C 30.13in /  1020.2hPa SSE 3.0mph /  4.8km/h 8.0mph /  12.9km/h 48% 0.00in /  0mm
12:14 82.9 °F /  28.3 °C 59.4 °F /  15.2 °C 30.12in /  1019.9hPa SE 3.0mph /  4.8km/h 8.0mph /  12.9km/h 45% 0.00in /  0mm
12:19 83.3 °F /  28.5 °C 60.4 °F /  15.8 °C 30.12in /  1019.9hPa SE 3.0mph /  4.8km/h 8.0mph /  12.9km/h 46% 0.00in /  0mm
12:24 82.7 °F /  28.2 °C 60.4 °F /  15.8 °C 30.12in /  1019.9hPa SE 3.0mph /  4.8km/h 8.0mph /  12.9km/h 47% 0.00in /  0mm
12:29 83.1 °F /  28.4 °C 58.3 °F /  14.6 °C 30.12in /  1019.9hPa SE 3.0mph /  4.8km/h 8.0mph /  12.9km/h 43% 0.00in /  0mm
12:34 83.3 °F /  28.5 °C 61.6 °F /  16.4 °C 30.12in /  1019.9hPa SE 2.0mph /  3.2km/h 9.0mph /  14.5km/h 48% 0.00in /  0mm
12:39 83.8 °F /  28.8 °C 60.8 °F /  16 °C 30.12in /  1019.9hPa SSE 1.0mph /  1.6km/h 7.0mph /  11.3km/h 46% 0.00in /  0mm
12:44 83.7 °F /  28.7 °C 61.3 °F /  16.3 °C 30.11in /  1019.5hPa SW 3.0mph /  4.8km/h 7.0mph /  11.3km/h 47% 0.00in /  0mm
12:49 84.0 °F /  28.9 °C 60.4 °F /  15.8 °C 30.11in /  1019.5hPa ESE 4.0mph /  6.4km/h 9.0mph /  14.5km/h 45% 0.00in /  0mm
12:54 84.1 °F /  28.9 °C 61.1 °F /  16.2 °C 30.11in /  1019.5hPa ESE 3.0mph /  4.8km/h 7.0mph /  11.3km/h 46% 0.00in /  0mm
12:59 83.5 °F /  28.6 °C 59.9 °F /  15.5 °C 30.11in /  1019.5hPa North 2.0mph /  3.2km/h 10.0mph /  16.1km/h 45% 0.00in /  0mm
13:04 83.8 °F /  28.8 °C 60.8 °F /  16 °C 30.11in /  1019.5hPa NE 5.0mph /  8km/h 6.0mph /  9.7km/h 46% 0.00in /  0mm
13:09 84.7 °F /  29.3 °C 60.4 °F /  15.8 °C 30.11in /  1019.5hPa East 3.0mph /  4.8km/h 7.0mph /  11.3km/h 44% 0.00in /  0mm
13:14 84.8 °F /  29.3 °C 61.7 °F /  16.5 °C 30.10in /  1019.2hPa SE 4.0mph /  6.4km/h 8.0mph /  12.9km/h 46% 0.00in /  0mm
13:19 83.8 °F /  28.8 °C 58.3 °F /  14.6 °C 30.10in /  1019.2hPa SE 3.0mph /  4.8km/h 8.0mph /  12.9km/h 42% 0.00in /  0mm
13:24 83.9 °F /  28.8 °C 60.9 °F /  16.1 °C 30.10in /  1019.2hPa ESE 3.0mph /  4.8km/h 7.0mph /  11.3km/h 46% 0.00in /  0mm
13:29 83.5 °F /  28.6 °C 62.3 °F /  16.8 °C 30.10in /  1019.2hPa Calm   4.0mph /  6.4km/h 49% 0.00in /  0mm
13:34 84.7 °F /  29.3 °C 61.6 °F /  16.4 °C 30.09in /  1018.8hPa NE 3.0mph /  4.8km/h 8.0mph /  12.9km/h 46% 0.00in /  0mm
13:39 85.1 °F /  29.5 °C 62.0 °F /  16.7 °C 30.09in /  1018.8hPa ENE 5.0mph /  8km/h 9.0mph /  14.5km/h 46% 0.00in /  0mm
13:44 85.2 °F /  29.6 °C 61.5 °F /  16.4 °C 30.09in /  1018.8hPa WSW 3.0mph /  4.8km/h 7.0mph /  11.3km/h 45% 0.00in /  0mm
13:49 84.0 °F /  28.9 °C 61.0 °F /  16.1 °C 30.09in /  1018.8hPa SSE 1.0mph /  1.6km/h 3.0mph /  4.8km/h 46% 0.00in /  0mm
13:54 84.9 °F /  29.4 °C 61.8 °F /  16.6 °C 30.09in /  1018.8hPa ESE 2.0mph /  3.2km/h 9.0mph /  14.5km/h 46% 0.00in /  0mm
13:59 84.5 °F /  29.2 °C 60.8 °F /  16 °C 30.09in /  1018.8hPa Calm   9.0mph /  14.5km/h 45% 0.00in /  0mm
14:04 84.1 °F /  28.9 °C 60.5 °F /  15.8 °C 30.09in /  1018.8hPa East 2.0mph /  3.2km/h 6.0mph /  9.7km/h 45% 0.00in /  0mm
14:09 83.2 °F /  28.4 °C 61.5 °F /  16.4 °C 30.08in /  1018.5hPa NE 3.0mph /  4.8km/h 8.0mph /  12.9km/h 48% 0.00in /  0mm
14:14 84.9 °F /  29.4 °C 63.6 °F /  17.6 °C 30.08in /  1018.5hPa ENE 3.0mph /  4.8km/h 8.0mph /  12.9km/h 49% 0.00in /  0mm
14:19 84.4 °F /  29.1 °C 60.1 °F /  15.6 °C 30.08in /  1018.5hPa SE 2.0mph /  3.2km/h 6.0mph /  9.7km/h 44% 0.00in /  0mm
14:24 83.7 °F /  28.7 °C 60.7 °F /  15.9 °C 30.08in /  1018.5hPa SE 3.0mph /  4.8km/h 8.0mph /  12.9km/h 46% 0.00in /  0mm
14:29 83.8 °F /  28.8 °C 61.4 °F /  16.3 °C 30.08in /  1018.5hPa SE 3.0mph /  4.8km/h 6.0mph /  9.7km/h 47% 0.00in /  0mm
14:34 84.0 °F /  28.9 °C 62.2 °F /  16.8 °C 30.08in /  1018.5hPa SSE 1.0mph /  1.6km/h 6.0mph /  9.7km/h 48% 0.00in /  0mm
14:39 85.3 °F /  29.6 °C 62.2 °F /  16.8 °C 30.08in /  1018.5hPa SSE 2.0mph /  3.2km/h 6.0mph /  9.7km/h 46% 0.00in /  0mm
14:44 85.9 °F /  29.9 °C 63.3 °F /  17.4 °C 30.08in /  1018.5hPa Calm   3.0mph /  4.8km/h 47% 0.00in /  0mm
14:49 86.8 °F /  30.4 °C 63.5 °F /  17.5 °C 30.07in /  1018.2hPa South 3.0mph /  4.8km/h 6.0mph /  9.7km/h 46% 0.00in /  0mm
14:54 87.1 °F /  30.6 °C 61.9 °F /  16.6 °C 30.07in /  1018.2hPa SW 3.0mph /  4.8km/h 6.0mph /  9.7km/h 43% 0.00in /  0mm
14:59 87.2 °F /  30.7 °C 62.6 °F /  17 °C 30.07in /  1018.2hPa ESE 1.0mph /  1.6km/h 9.0mph /  14.5km/h 44% 0.00in /  0mm
15:04 87.1 °F /  30.6 °C 62.5 °F /  16.9 °C 30.07in /  1018.2hPa Calm   6.0mph /  9.7km/h 44% 0.00in /  0mm
15:09 86.5 °F /  30.3 °C 61.3 °F /  16.3 °C 30.07in /  1018.2hPa South 3.0mph /  4.8km/h 7.0mph /  11.3km/h 43% 0.00in /  0mm
15:14 85.2 °F /  29.6 °C 61.5 °F /  16.4 °C 30.07in /  1018.2hPa West 2.0mph /  3.2km/h 7.0mph /  11.3km/h 45% 0.00in /  0mm
15:19 84.8 °F /  29.3 °C 62.3 °F /  16.8 °C 30.07in /  1018.2hPa ENE 5.0mph /  8km/h 9.0mph /  14.5km/h 47% 0.00in /  0mm
15:24 86.2 °F /  30.1 °C 63.0 °F /  17.2 °C 30.07in /  1018.2hPa South 7.0mph /  11.3km/h 8.0mph /  12.9km/h 46% 0.00in /  0mm
15:29 85.9 °F /  29.9 °C 63.3 °F /  17.4 °C 30.06in /  1017.8hPa SE 5.0mph /  8km/h 6.0mph /  9.7km/h 47% 0.00in /  0mm
15:34 86.4 °F /  30.2 °C 60.6 °F /  15.9 °C 30.06in /  1017.8hPa SW 1.0mph /  1.6km/h 7.0mph /  11.3km/h 42% 0.00in /  0mm
15:39 85.9 °F /  29.9 °C 62.1 °F /  16.7 °C 30.07in /  1018.2hPa ESE 2.0mph /  3.2km/h 7.0mph /  11.3km/h 45% 0.00in /  0mm
15:44 87.3 °F /  30.7 °C 62.7 °F /  17.1 °C 30.06in /  1017.8hPa SE 2.0mph /  3.2km/h 6.0mph /  9.7km/h 44% 0.00in /  0mm
15:49 87.9 °F /  31.1 °C 64.5 °F /  18.1 °C 30.06in /  1017.8hPa SE 3.0mph /  4.8km/h 6.0mph /  9.7km/h 46% 0.00in /  0mm
15:54 87.4 °F /  30.8 °C 64.1 °F /  17.8 °C 30.06in /  1017.8hPa SE 2.0mph /  3.2km/h 6.0mph /  9.7km/h 46% 0.00in /  0mm
15:59 87.1 °F /  30.6 °C 63.2 °F /  17.3 °C 30.05in /  1017.5hPa SE 2.0mph /  3.2km/h 4.0mph /  6.4km/h 45% 0.00in /  0mm
16:04 86.8 °F /  30.4 °C 61.6 °F /  16.4 °C 30.05in /  1017.5hPa Calm   5.0mph /  8km/h 43% 0.00in /  0mm
16:09 85.7 °F /  29.8 °C 61.9 °F /  16.6 °C 30.05in /  1017.5hPa SW 4.0mph /  6.4km/h 4.0mph /  6.4km/h 45% 0.00in /  0mm
16:14 86.4 °F /  30.2 °C 61.9 °F /  16.6 °C 30.05in /  1017.5hPa WNW 1.0mph /  1.6km/h 5.0mph /  8km/h 44% 0.00in /  0mm
16:19 88.1 °F /  31.2 °C 63.4 °F /  17.4 °C 30.05in /  1017.5hPa Calm   3.0mph /  4.8km/h 44% 0.00in /  0mm
16:24 88.6 °F /  31.4 °C 63.2 °F /  17.3 °C 30.05in /  1017.5hPa East 5.0mph /  8km/h 5.0mph /  8km/h 43% 0.00in /  0mm
16:29 88.7 °F /  31.5 °C 62.0 °F /  16.7 °C 30.05in /  1017.5hPa South 2.0mph /  3.2km/h 5.0mph /  8km/h 41% 0.00in /  0mm
16:34 88.7 °F /  31.5 °C 62.7 °F /  17.1 °C 30.04in /  1017.2hPa ESE 3.0mph /  4.8km/h 5.0mph /  8km/h 42% 0.00in /  0mm
16:39 88.0 °F /  31.1 °C 60.7 °F /  15.9 °C 30.04in /  1017.2hPa South 2.0mph /  3.2km/h 5.0mph /  8km/h 40% 0.00in /  0mm
16:44 86.7 °F /  30.4 °C 61.5 °F /  16.4 °C 30.04in /  1017.2hPa SSW 2.0mph /  3.2km/h 5.0mph /  8km/h 43% 0.00in /  0mm
16:49 86.0 °F /  30 °C 60.2 °F /  15.7 °C 30.04in /  1017.2hPa South 2.0mph /  3.2km/h 4.0mph /  6.4km/h 42% 0.00in /  0mm
16:54 85.4 °F /  29.7 °C 61.6 °F /  16.4 °C 30.04in /  1017.2hPa SSE 1.0mph /  1.6km/h 4.0mph /  6.4km/h 45% 0.00in /  0mm
16:59 85.9 °F /  29.9 °C 62.7 °F /  17.1 °C 30.04in /  1017.2hPa SE 1.0mph /  1.6km/h 3.0mph /  4.8km/h 46% 0.00in /  0mm
17:04 87.6 °F /  30.9 °C 64.3 °F /  17.9 °C 30.04in /  1017.2hPa ENE 1.0mph /  1.6km/h 3.0mph /  4.8km/h 46% 0.00in /  0mm
17:09 87.4 °F /  30.8 °C 64.7 °F /  18.2 °C 30.04in /  1017.2hPa ENE 2.0mph /  3.2km/h 5.0mph /  8km/h 47% 0.00in /  0mm
17:14 87.6 °F /  30.9 °C 64.3 °F /  17.9 °C 30.03in /  1016.8hPa NE 5.0mph /  8km/h 6.0mph /  9.7km/h 46% 0.00in /  0mm
17:19 86.8 °F /  30.4 °C 63.5 °F /  17.5 °C 30.03in /  1016.8hPa NNE 1.0mph /  1.6km/h 5.0mph /  8km/h 46% 0.00in /  0mm
17:24 87.1 °F /  30.6 °C 63.8 °F /  17.7 °C 30.03in /  1016.8hPa NE 3.0mph /  4.8km/h 7.0mph /  11.3km/h 46% 0.00in /  0mm
17:29 86.6 °F /  30.3 °C 63.4 °F /  17.4 °C 30.03in /  1016.8hPa NNW 6.0mph /  9.7km/h 7.0mph /  11.3km/h 46% 0.00in /  0mm
17:34 85.3 °F /  29.6 °C 62.2 °F /  16.8 °C 30.03in /  1016.8hPa Calm   6.0mph /  9.7km/h 46% 0.00in /  0mm
17:39 85.0 °F /  29.4 °C 63.1 °F /  17.3 °C 30.03in /  1016.8hPa North 2.0mph /  3.2km/h 6.0mph /  9.7km/h 48% 0.00in /  0mm
17:44 85.3 °F /  29.6 °C 62.8 °F /  17.1 °C 30.03in /  1016.8hPa NE 2.0mph /  3.2km/h 8.0mph /  12.9km/h 47% 0.00in /  0mm
17:49 85.2 °F /  29.6 °C 65.6 °F /  18.7 °C 30.03in /  1016.8hPa NNE 3.0mph /  4.8km/h 8.0mph /  12.9km/h 52% 0.00in /  0mm
17:54 84.1 °F /  28.9 °C 66.7 °F /  19.3 °C 30.03in /  1016.8hPa North 2.0mph /  3.2km/h 6.0mph /  9.7km/h 56% 0.00in /  0mm
17:59 84.8 °F /  29.3 °C 66.3 °F /  19.1 °C 30.03in /  1016.8hPa NNE 5.0mph /  8km/h 5.0mph /  8km/h 54% 0.00in /  0mm
18:04 84.3 °F /  29.1 °C 66.4 °F /  19.1 °C 30.03in /  1016.8hPa NNE 3.0mph /  4.8km/h 8.0mph /  12.9km/h 55% 0.00in /  0mm
18:09 83.6 °F /  28.7 °C 65.7 °F /  18.7 °C 30.03in /  1016.8hPa NNE 3.0mph /  4.8km/h 8.0mph /  12.9km/h 55% 0.00in /  0mm
18:14 83.8 °F /  28.8 °C 65.9 °F /  18.8 °C 30.03in /  1016.8hPa NNE 3.0mph /  4.8km/h 7.0mph /  11.3km/h 55% 0.00in /  0mm
18:19 83.7 °F /  28.7 °C 66.3 °F /  19.1 °C 30.03in /  1016.8hPa NNE 3.0mph /  4.8km/h 8.0mph /  12.9km/h 56% 0.00in /  0mm
18:24 83.1 °F /  28.4 °C 64.7 °F /  18.2 °C 30.04in /  1017.2hPa ENE 3.0mph /  4.8km/h 10.0mph /  16.1km/h 54% 0.00in /  0mm
18:29 82.4 °F /  28 °C 65.1 °F /  18.4 °C 30.03in /  1016.8hPa NNE 3.0mph /  4.8km/h 12.0mph /  19.3km/h 56% 0.00in /  0mm
18:34 81.8 °F /  27.7 °C 64.6 °F /  18.1 °C 30.03in /  1016.8hPa NNE 4.0mph /  6.4km/h 12.0mph /  19.3km/h 56% 0.00in /  0mm
18:39 81.6 °F /  27.6 °C 64.9 °F /  18.3 °C 30.03in /  1016.8hPa North 3.0mph /  4.8km/h 8.0mph /  12.9km/h 57% 0.00in /  0mm
18:44 81.6 °F /  27.6 °C 64.9 °F /  18.3 °C 30.04in /  1017.2hPa NNE 3.0mph /  4.8km/h 13.0mph /  20.9km/h 57% 0.00in /  0mm
18:49 81.2 °F /  27.3 °C 64.5 °F /  18.1 °C 30.04in /  1017.2hPa North 3.0mph /  4.8km/h 8.0mph /  12.9km/h 57% 0.00in /  0mm
18:59 80.9 °F /  27.2 °C 64.7 °F /  18.2 °C 30.04in /  1017.2hPa NE 3.0mph /  4.8km/h 6.0mph /  9.7km/h 58% 0.00in /  0mm
19:04 80.9 °F /  27.2 °C 63.7 °F /  17.6 °C 30.04in /  1017.2hPa NE 1.0mph /  1.6km/h 8.0mph /  12.9km/h 56% 0.00in /  0mm
19:09 80.6 °F /  27 °C 63.5 °F /  17.5 °C 30.04in /  1017.2hPa NE 3.0mph /  4.8km/h 8.0mph /  12.9km/h 56% 0.00in /  0mm
19:14 80.2 °F /  26.8 °C 63.1 °F /  17.3 °C 30.03in /  1016.8hPa NE 4.0mph /  6.4km/h 14.0mph /  22.5km/h 56% 0.00in /  0mm
19:19 79.9 °F /  26.6 °C 62.8 °F /  17.1 °C 30.03in /  1016.8hPa NE 4.0mph /  6.4km/h 11.0mph /  17.7km/h 56% 0.00in /  0mm
19:24 79.8 °F /  26.6 °C 62.7 °F /  17.1 °C 30.04in /  1017.2hPa NE 2.0mph /  3.2km/h 10.0mph /  16.1km/h 56% 0.00in /  0mm
19:29 79.7 °F /  26.5 °C 63.6 °F /  17.6 °C 30.04in /  1017.2hPa NE 3.0mph /  4.8km/h 5.0mph /  8km/h 58% 0.00in /  0mm
19:34 79.5 °F /  26.4 °C 62.9 °F /  17.2 °C 30.03in /  1016.8hPa NE 2.0mph /  3.2km/h 8.0mph /  12.9km/h 57% 0.00in /  0mm
19:39 79.3 °F /  26.3 °C 63.7 °F /  17.6 °C 30.03in /  1016.8hPa NE 3.0mph /  4.8km/h 8.0mph /  12.9km/h 59% 0.00in /  0mm
19:44 79.2 °F /  26.2 °C 63.1 °F /  17.3 °C 30.03in /  1016.8hPa NE 2.0mph /  3.2km/h 8.0mph /  12.9km/h 58% 0.00in /  0mm
19:49 78.9 °F /  26.1 °C 62.9 °F /  17.2 °C 30.04in /  1017.2hPa NE 2.0mph /  3.2km/h 8.0mph /  12.9km/h 58% 0.00in /  0mm
19:54 78.5 °F /  25.8 °C 63.0 °F /  17.2 °C 30.04in /  1017.2hPa NNE 2.0mph /  3.2km/h 6.0mph /  9.7km/h 59% 0.00in /  0mm
19:59 78.3 °F /  25.7 °C 62.8 °F /  17.1 °C 30.04in /  1017.2hPa NNE 3.0mph /  4.8km/h 5.0mph /  8km/h 59% 0.00in /  0mm
20:04 77.9 °F /  25.5 °C 62.9 °F /  17.2 °C 30.04in /  1017.2hPa NNE 2.0mph /  3.2km/h 5.0mph /  8km/h 60% 0.00in /  0mm
20:09 77.7 °F /  25.4 °C 62.7 °F /  17.1 °C 30.04in /  1017.2hPa NE 4.0mph /  6.4km/h 7.0mph /  11.3km/h 60% 0.00in /  0mm
20:14 77.3 °F /  25.2 °C 62.3 °F /  16.8 °C 30.03in /  1016.8hPa NNE 1.0mph /  1.6km/h 4.0mph /  6.4km/h 60% 0.00in /  0mm
20:19 77.2 °F /  25.1 °C 62.7 °F /  17.1 °C 30.03in /  1016.8hPa NNE 2.0mph /  3.2km/h 4.0mph /  6.4km/h 61% 0.00in /  0mm
20:24 77.0 °F /  25 °C 63.0 °F /  17.2 °C 30.03in /  1016.8hPa NE 2.0mph /  3.2km/h 5.0mph /  8km/h 62% 0.00in /  0mm
20:29 76.7 °F /  24.8 °C 62.7 °F /  17.1 °C 30.03in /  1016.8hPa NE 2.0mph /  3.2km/h 3.0mph /  4.8km/h 62% 0.00in /  0mm
20:34 76.4 °F /  24.7 °C 62.4 °F /  16.9 °C 30.03in /  1016.8hPa NNE 2.0mph /  3.2km/h 6.0mph /  9.7km/h 62% 0.00in /  0mm
20:39 76.3 °F /  24.6 °C 62.3 °F /  16.8 °C 30.03in /  1016.8hPa NE 2.0mph /  3.2km/h 8.0mph /  12.9km/h 62% 0.00in /  0mm
20:44 76.0 °F /  24.4 °C 62.0 °F /  16.7 °C 30.03in /  1016.8hPa NE 2.0mph /  3.2km/h 8.0mph /  12.9km/h 62% 0.00in /  0mm
20:49 75.6 °F /  24.2 °C 61.7 °F /  16.5 °C 30.03in /  1016.8hPa NE 2.0mph /  3.2km/h 5.0mph /  8km/h 62% 0.00in /  0mm
20:54 75.4 °F /  24.1 °C 61.0 °F /  16.1 °C 30.04in /  1017.2hPa NE 2.0mph /  3.2km/h 5.0mph /  8km/h 61% 0.00in /  0mm
20:59 75.1 °F /  23.9 °C 61.2 °F /  16.2 °C 30.04in /  1017.2hPa NE 2.0mph /  3.2km/h 5.0mph /  8km/h 62% 0.00in /  0mm
21:04 74.9 °F /  23.8 °C 61.0 °F /  16.1 °C 30.04in /  1017.2hPa Calm   2.0mph /  3.2km/h 62% 0.00in /  0mm
21:09 74.8 °F /  23.8 °C 60.9 °F /  16.1 °C 30.04in /  1017.2hPa ENE 1.0mph /  1.6km/h 6.0mph /  9.7km/h 62% 0.00in /  0mm
21:14 74.7 °F /  23.7 °C 60.8 °F /  16 °C 30.04in /  1017.2hPa Calm   2.0mph /  3.2km/h 62% 0.00in /  0mm
21:19 74.5 °F /  23.6 °C 60.6 °F /  15.9 °C 30.04in /  1017.2hPa NE 2.0mph /  3.2km/h 8.0mph /  12.9km/h 62% 0.00in /  0mm
21:24 74.4 °F /  23.6 °C 60.5 °F /  15.8 °C 30.04in /  1017.2hPa Calm   3.0mph /  4.8km/h 62% 0.00in /  0mm
21:29 74.0 °F /  23.3 °C 60.6 °F /  15.9 °C 30.04in /  1017.2hPa ENE 1.0mph /  1.6km/h 2.0mph /  3.2km/h 63% 0.00in /  0mm
21:34 73.8 °F /  23.2 °C 60.4 °F /  15.8 °C 30.04in /  1017.2hPa Calm   2.0mph /  3.2km/h 63% 0.00in /  0mm
21:39 73.6 °F /  23.1 °C 60.7 °F /  15.9 °C 30.04in /  1017.2hPa Calm   2.0mph /  3.2km/h 64% 0.00in /  0mm
21:44 73.3 °F /  22.9 °C 60.8 °F /  16 °C 30.04in /  1017.2hPa Calm     65% 0.00in /  0mm
21:49 72.9 °F /  22.7 °C 60.9 °F /  16.1 °C 30.04in /  1017.2hPa Calm     66% 0.00in /  0mm
21:54 72.8 °F /  22.7 °C 60.3 °F /  15.7 °C 30.04in /  1017.2hPa Calm     65% 0.00in /  0mm
21:59 72.8 °F /  22.7 °C 60.3 °F /  15.7 °C 30.04in /  1017.2hPa Calm     65% 0.00in /  0mm
22:04 72.9 °F /  22.7 °C 60.4 °F /  15.8 °C 30.04in /  1017.2hPa Calm     65% 0.00in /  0mm
22:09 72.8 °F /  22.7 °C 60.3 °F /  15.7 °C 30.04in /  1017.2hPa Calm     65% 0.00in /  0mm
22:14 72.6 °F /  22.6 °C 60.2 °F /  15.7 °C 30.05in /  1017.5hPa Calm   4.0mph /  6.4km/h 65% 0.00in /  0mm
22:19 72.4 °F /  22.4 °C 60.4 °F /  15.8 °C 30.05in /  1017.5hPa Calm   3.0mph /  4.8km/h 66% 0.00in /  0mm
22:24 72.1 °F /  22.3 °C 60.1 °F /  15.6 °C 30.05in /  1017.5hPa Calm     66% 0.00in /  0mm
22:29 72.2 °F /  22.3 °C 60.6 °F /  15.9 °C 30.05in /  1017.5hPa Calm     67% 0.00in /  0mm
22:34 72.5 °F /  22.5 °C 60.5 °F /  15.8 °C 30.04in /  1017.2hPa Calm   2.0mph /  3.2km/h 66% 0.00in /  0mm
22:39 72.8 °F /  22.7 °C 60.3 °F /  15.7 °C 30.04in /  1017.2hPa Calm   2.0mph /  3.2km/h 65% 0.00in /  0mm
22:44 72.9 °F /  22.7 °C 60.9 °F /  16.1 °C 30.05in /  1017.5hPa Calm   2.0mph /  3.2km/h 66% 0.00in /  0mm
22:49 72.7 °F /  22.6 °C 60.7 °F /  15.9 °C 30.05in /  1017.5hPa Calm     66% 0.00in /  0mm
22:54 72.6 °F /  22.6 °C 60.6 °F /  15.9 °C 30.04in /  1017.2hPa Calm     66% 0.00in /  0mm
22:59 72.4 °F /  22.4 °C 60.4 °F /  15.8 °C 30.04in /  1017.2hPa Calm     66% 0.00in /  0mm
23:04 72.2 °F /  22.3 °C 60.2 °F /  15.7 °C 30.04in /  1017.2hPa Calm     66% 0.00in /  0mm
23:09 72.2 °F /  22.3 °C 60.2 °F /  15.7 °C 30.04in /  1017.2hPa Calm     66% 0.00in /  0mm
23:14 71.9 °F /  22.2 °C 60.3 °F /  15.7 °C 30.04in /  1017.2hPa Calm     67% 0.00in /  0mm
23:19 71.6 °F /  22 °C 60.1 °F /  15.6 °C 30.04in /  1017.2hPa Calm     67% 0.00in /  0mm
23:24 71.3 °F /  21.8 °C 60.2 °F /  15.7 °C 30.04in /  1017.2hPa Calm     68% 0.00in /  0mm
23:29 70.8 °F /  21.6 °C 60.1 °F /  15.6 °C 30.04in /  1017.2hPa Calm     69% 0.00in /  0mm
23:34 70.4 °F /  21.3 °C 60.1 °F /  15.6 °C 30.04in /  1017.2hPa Calm     70% 0.00in /  0mm
23:39 70.4 °F /  21.3 °C 60.1 °F /  15.6 °C 30.04in /  1017.2hPa Calm     70% 0.00in /  0mm
23:44 70.2 °F /  21.2 °C 60.0 °F /  15.6 °C 30.04in /  1017.2hPa Calm     70% 0.00in /  0mm
23:49 69.8 °F /  21 °C 60.0 °F /  15.6 °C 30.04in /  1017.2hPa Calm     71% 0.00in /  0mm
23:54 69.7 °F /  20.9 °C 60.3 °F /  15.7 °C 30.05in /  1017.5hPa Calm     72% 0.00in /  0mm
23:59 69.7 °F /  20.9 °C 60.3 °F /  15.7 °C 30.04in /  1017.2hPa Calm     72% 0.00in /  0mm
Buffalo, New York, USA
Compliments of Weather Underground - 2.5 mb